Time;durP1;ratioP1;P1;durP2;ratioP2;P2;SDS_P1;SDS_P2;PMS_P1;PMS_P2;Temp;Humidity;BMP_temperature;BMP_pressure;BME280_temperature;BME280_humidity;BME280_pressure;Samples;Min_cycle;Max_cycle;Signal;HPM_P1;HPM_P2
2022/06/25 00:02:18;;;;;;;22.80;17.95;;;;;;;;;;5012505;28;20331;-58
2022/06/25 00:07:29;;;;;;;20.70;17.02;;;;;;;;;;5013577;28;20599;-58
2022/06/25 00:09:55;;;;;;;23.55;17.50;;;;;;;;;;4995759;28;20224;-59
2022/06/25 00:12:33;;;;;;;21.73;16.80;;;;;;;;;;5012775;28;20183;-59
2022/06/25 00:15:03;;;;;;;18.73;15.52;;;;;;;;;;5013858;28;20181;-58
2022/06/25 00:17:29;;;;;;;21.17;16.95;;;;;;;;;;5013978;28;20261;-58
2022/06/25 00:19:56;;;;;;;20.83;16.50;;;;;;;;;;5013712;28;20180;-58
2022/06/25 00:22:22;;;;;;;22.38;16.27;;;;;;;;;;5012806;28;20652;-58
2022/06/25 00:24:48;;;;;;;21.85;15.82;;;;;;;;;;5013113;28;20180;-59
2022/06/25 00:27:15;;;;;;;21.02;15.82;;;;;;;;;;5013639;28;20191;-58
2022/06/25 00:29:41;;;;;;;20.83;16.35;;;;;;;;;;5013297;28;20194;-58
2022/06/25 00:32:09;;;;;;;18.88;16.05;;;;;;;;;;5012728;28;20250;-58
2022/06/25 00:34:37;;;;;;;21.58;15.35;;;;;;;;;;4996005;28;20246;-58
2022/06/25 00:37:03;;;;;;;19.27;16.08;;;;;;;;;;5012635;28;20215;-59
2022/06/25 00:39:29;;;;;;;17.77;14.20;;;;;;;;;;4995712;28;20589;-58
2022/06/25 00:41:56;;;;;;;20.67;15.63;;;;;;;;;;5013576;28;20216;-59
2022/06/25 00:44:22;;;;;;;21.63;15.55;;;;;;;;;;5012604;28;20185;-58
2022/06/25 00:46:48;;;;;;;19.00;15.00;;;;;;;;;;5013386;28;20279;-58
2022/06/25 00:49:15;;;;;;;20.52;14.75;;;;;;;;;;5013455;28;20172;-57
2022/06/25 00:51:42;;;;;;;19.58;14.75;;;;;;;;;;5013016;28;20241;-58
2022/06/25 00:54:09;;;;;;;19.48;15.00;;;;;;;;;;4975155;28;20189;-58
2022/06/25 00:56:40;;;;;;;16.42;14.02;;;;;;;;;;4992404;28;20205;-58
2022/06/25 00:59:06;;;;;;;17.75;14.82;;;;;;;;;;5010914;28;20203;-58
2022/06/25 01:01:33;;;;;;;19.40;14.15;;;;;;;;;;5012922;28;20184;-58
2022/06/25 01:03:59;;;;;;;16.63;14.15;;;;;;;;;;4994797;28;20192;-58
2022/06/25 01:06:28;;;;;;;18.02;13.60;;;;;;;;;;4995063;28;20235;-59
2022/06/25 01:08:55;;;;;;;18.23;14.93;;;;;;;;;;4993856;28;20237;-60
2022/06/25 01:11:21;;;;;;;15.75;13.98;;;;;;;;;;5012499;28;20347;-58
2022/06/25 01:13:47;;;;;;;19.65;13.63;;;;;;;;;;5013322;28;20191;-58
2022/06/25 01:16:13;;;;;;;17.15;13.77;;;;;;;;;;4980435;28;20216;-58
2022/06/25 01:18:39;;;;;;;17.63;13.07;;;;;;;;;;4999403;28;20196;-58
2022/06/25 01:21:06;;;;;;;17.83;13.68;;;;;;;;;;4997377;28;20192;-60
2022/06/25 01:23:32;;;;;;;18.25;13.40;;;;;;;;;;4999524;28;20188;-58
2022/06/25 01:25:58;;;;;;;18.02;14.07;;;;;;;;;;4999486;28;20239;-59
2022/06/25 01:28:24;;;;;;;18.10;13.77;;;;;;;;;;4999945;28;20238;-58
2022/06/25 01:30:50;;;;;;;17.27;13.70;;;;;;;;;;5016189;28;20184;-58
2022/06/25 01:33:16;;;;;;;18.48;14.45;;;;;;;;;;4998413;28;20596;-60
2022/06/25 01:35:43;;;;;;;20.42;13.85;;;;;;;;;;5015850;28;20200;-58
2022/06/25 01:38:09;;;;;;;22.88;14.15;;;;;;;;;;4998518;28;20189;-58
2022/06/25 01:40:35;;;;;;;18.88;13.70;;;;;;;;;;4998824;28;20189;-59
2022/06/25 01:43:04;;;;;;;20.45;14.48;;;;;;;;;;4999432;28;20185;-59
2022/06/25 01:45:33;;;;;;;16.83;13.95;;;;;;;;;;5016637;28;20188;-59
2022/06/25 01:48:00;;;;;;;19.25;13.82;;;;;;;;;;5016559;28;20180;-60
2022/06/25 01:50:27;;;;;;;18.30;14.10;;;;;;;;;;5012932;28;20263;-59
2022/06/25 01:52:54;;;;;;;16.25;13.70;;;;;;;;;;4998924;28;20177;-59
2022/06/25 01:55:20;;;;;;;19.20;13.95;;;;;;;;;;4998919;28;20555;-58
2022/06/25 01:57:48;;;;;;;16.13;13.77;;;;;;;;;;4998751;28;20185;-58
2022/06/25 02:00:20;;;;;;;18.45;14.68;;;;;;;;;;4998110;28;20187;-59
2022/06/25 02:02:52;;;;;;;18.92;14.93;;;;;;;;;;4998585;28;20180;-59
2022/06/25 02:05:56;;;;;;;19.35;14.35;;;;;;;;;;4997589;28;20656;-59
2022/06/25 02:08:06;;;;;;;21.70;14.98;;;;;;;;;;5015825;28;20228;-60
2022/06/25 02:10:32;;;;;;;17.50;14.68;;;;;;;;;;5016043;28;20216;-58
2022/06/25 02:12:58;;;;;;;22.33;15.70;;;;;;;;;;4997603;28;20247;-59
2022/06/25 02:15:24;;;;;;;16.77;14.77;;;;;;;;;;5015893;28;20196;-59
2022/06/25 02:17:50;;;;;;;19.30;14.77;;;;;;;;;;5016381;28;20663;-58
2022/06/25 02:20:19;;;;;;;19.42;15.18;;;;;;;;;;4998024;28;20177;-59
2022/06/25 02:22:45;;;;;;;20.05;15.00;;;;;;;;;;4997068;28;20184;-58
2022/06/25 02:25:11;;;;;;;19.88;14.57;;;;;;;;;;4981885;28;20658;-58
2022/06/25 02:27:40;;;;;;;17.85;14.95;;;;;;;;;;4997806;28;20181;-58
2022/06/25 02:30:06;;;;;;;20.08;15.10;;;;;;;;;;4998055;28;20192;-59
2022/06/25 02:32:33;;;;;;;19.85;14.77;;;;;;;;;;4977976;28;20327;-59
2022/06/25 02:35:00;;;;;;;22.45;15.00;;;;;;;;;;4994981;28;20181;-59
2022/06/25 02:37:27;;;;;;;20.20;14.95;;;;;;;;;;4997228;28;20228;-58
2022/06/25 02:39:55;;;;;;;18.73;14.77;;;;;;;;;;4997682;28;20275;-60
2022/06/25 02:42:21;;;;;;;20.05;14.35;;;;;;;;;;4997512;28;20211;-59
2022/06/25 02:44:47;;;;;;;18.50;14.05;;;;;;;;;;4995186;28;20189;-59
2022/06/25 02:47:13;;;;;;;19.25;14.43;;;;;;;;;;4981848;28;20192;-58
2022/06/25 02:50:02;;;;;;;18.98;13.88;;;;;;;;;;4997992;28;20553;-58
2022/06/25 02:52:28;;;;;;;17.60;14.02;;;;;;;;;;4994255;28;20200;-58
2022/06/25 02:54:55;;;;;;;20.80;13.80;;;;;;;;;;4996627;28;20211;-59
2022/06/25 03:00:13;;;;;;;22.83;13.15;;;;;;;;;;4997344;28;20200;-59
2022/06/25 03:02:40;;;;;;;18.30;13.23;;;;;;;;;;4997614;28;20207;-58
2022/06/25 03:05:06;;;;;;;22.77;14.13;;;;;;;;;;4977429;28;20185;-58
2022/06/25 03:07:33;;;;;;;19.13;13.25;;;;;;;;;;4995016;28;20189;-59
2022/06/25 03:09:59;;;;;;;18.20;12.80;;;;;;;;;;4997134;28;20275;-59
2022/06/25 03:12:25;;;;;;;23.95;13.57;;;;;;;;;;4996854;28;20184;-58
2022/06/25 03:15:03;;;;;;;19.83;12.75;;;;;;;;;;4987803;28;20196;-58
2022/06/25 03:17:29;;;;;;;20.73;12.13;;;;;;;;;;4994027;28;20280;-57
2022/06/25 03:20:22;;;;;;;23.80;12.73;;;;;;;;;;4979637;28;20189;-57
2022/06/25 03:22:53;;;;;;;18.58;12.80;;;;;;;;;;4996771;28;20275;-58
2022/06/25 03:25:19;;;;;;;21.75;11.95;;;;;;;;;;4994463;28;20184;-57
2022/06/25 03:27:45;;;;;;;25.40;11.57;;;;;;;;;;5014466;28;20226;-57
2022/06/25 03:30:14;;;;;;;19.17;11.38;;;;;;;;;;4996660;28;20592;-58
2022/06/25 03:32:41;;;;;;;21.38;11.50;;;;;;;;;;4996302;28;20187;-59
2022/06/25 03:35:17;;;;;;;16.95;10.50;;;;;;;;;;5014034;28;20184;-57
2022/06/25 03:37:56;;;;;;;20.85;10.95;;;;;;;;;;4996643;28;20267;-58
2022/06/25 03:40:22;;;;;;;18.75;11.48;;;;;;;;;;4979571;28;20196;-57
2022/06/25 03:42:49;;;;;;;18.95;10.48;;;;;;;;;;4996093;28;20188;-57
2022/06/25 03:45:16;;;;;;;20.27;10.13;;;;;;;;;;4995441;28;20690;-55
2022/06/25 03:47:49;;;;;;;20.83;10.63;;;;;;;;;;4995700;28;20219;-56
2022/06/25 03:50:20;;;;;;;16.17;9.35;;;;;;;;;;4985120;28;20193;-58
2022/06/25 03:52:47;;;;;;;20.27;9.70;;;;;;;;;;4991322;28;20188;-58
2022/06/25 03:55:13;;;;;;;19.75;9.70;;;;;;;;;;4995660;28;20188;-55
2022/06/25 03:57:40;;;;;;;16.08;9.23;;;;;;;;;;4996145;28;20188;-56
2022/06/25 04:00:15;;;;;;;18.75;9.07;;;;;;;;;;4996375;28;20272;-58
2022/06/25 04:03:01;;;;;;;23.75;9.48;;;;;;;;;;4995998;28;20184;-60
2022/06/25 04:05:30;;;;;;;15.00;8.60;;;;;;;;;;5007113;28;20204;-58
2022/06/25 04:08:15;;;;;;;17.77;8.40;;;;;;;;;;4980896;28;20316;-58
2022/06/25 04:10:42;;;;;;;16.08;7.68;;;;;;;;;;4979479;28;20184;-59
2022/06/25 04:13:09;;;;;;;15.82;7.50;;;;;;;;;;4996215;28;20192;-56
2022/06/25 04:15:36;;;;;;;16.60;7.50;;;;;;;;;;4995407;28;20194;-55
2022/06/25 04:18:06;;;;;;;11.23;6.75;;;;;;;;;;4996452;28;20253;-57
2022/06/25 04:20:33;;;;;;;10.57;6.65;;;;;;;;;;4995746;28;20212;-59
2022/06/25 04:23:00;;;;;;;11.80;6.50;;;;;;;;;;5013731;28;20572;-57
2022/06/25 04:25:27;;;;;;;17.13;6.22;;;;;;;;;;4995365;28;20188;-59
2022/06/25 04:30:38;;;;;;;12.07;5.80;;;;;;;;;;4995847;28;20192;-59
2022/06/25 04:33:05;;;;;;;12.20;5.47;;;;;;;;;;4995698;28;20238;-57
2022/06/25 04:35:36;;;;;;;12.88;5.68;;;;;;;;;;4994582;28;20290;-58
2022/06/25 04:38:19;;;;;;;11.85;5.47;;;;;;;;;;4995632;28;20232;-57
2022/06/25 04:40:45;;;;;;;12.52;5.80;;;;;;;;;;4994802;28;20564;-58
2022/06/25 04:43:11;;;;;;;13.55;4.90;;;;;;;;;;4979158;28;20635;-57
2022/06/25 04:45:37;;;;;;;13.30;5.85;;;;;;;;;;4979368;28;20185;-57
2022/06/25 04:48:16;;;;;;;9.98;5.32;;;;;;;;;;4995769;28;20636;-57
2022/06/25 04:51:01;;;;;;;8.70;4.95;;;;;;;;;;5012058;28;20264;-59
2022/06/25 04:53:27;;;;;;;8.05;5.10;;;;;;;;;;5013125;28;20636;-57
2022/06/25 04:55:54;;;;;;;10.50;5.30;;;;;;;;;;4994958;28;20721;-61
2022/06/25 04:58:20;;;;;;;11.13;4.85;;;;;;;;;;4995358;28;20189;-58
2022/06/25 05:01:06;;;;;;;14.07;5.07;;;;;;;;;;5011569;28;20321;-57
2022/06/25 05:03:32;;;;;;;12.15;5.10;;;;;;;;;;4978579;28;20196;-57
2022/06/25 05:06:24;;;;;;;10.48;5.53;;;;;;;;;;5010171;28;20208;-54
2022/06/25 05:08:50;;;;;;;8.23;5.05;;;;;;;;;;4991831;28;20236;-55
2022/06/25 05:11:17;;;;;;;11.20;4.78;;;;;;;;;;4958410;28;20221;-58
2022/06/25 05:13:44;;;;;;;10.15;4.85;;;;;;;;;;4989940;28;20181;-55
2022/06/25 05:16:10;;;;;;;11.85;5.05;;;;;;;;;;4991901;28;20200;-55
2022/06/25 05:18:36;;;;;;;16.67;5.15;;;;;;;;;;4992040;28;20650;-56
2022/06/25 05:21:02;;;;;;;15.00;5.10;;;;;;;;;;4991683;28;20181;-56
2022/06/25 05:23:29;;;;;;;8.77;4.78;;;;;;;;;;4990631;28;20196;-58
2022/06/25 05:25:56;;;;;;;11.10;4.85;;;;;;;;;;4992126;28;20526;-55
2022/06/25 05:28:22;;;;;;;11.77;5.10;;;;;;;;;;4991615;28;20629;-57
2022/06/25 05:30:48;;;;;;;12.98;4.65;;;;;;;;;;4991838;28;20295;-56
2022/06/25 05:33:14;;;;;;;12.57;4.85;;;;;;;;;;4990960;28;20196;-56
2022/06/25 05:35:41;;;;;;;17.27;6.57;;;;;;;;;;4970996;28;20221;-52
2022/06/25 05:38:07;;;;;;;9.38;4.97;;;;;;;;;;4973958;28;20182;-57
2022/06/25 05:40:34;;;;;;;11.88;5.35;;;;;;;;;;4973580;28;20707;-54
2022/06/25 05:43:00;;;;;;;10.70;4.97;;;;;;;;;;4984857;28;20197;-54
2022/06/25 05:45:27;;;;;;;8.68;4.65;;;;;;;;;;4992002;28;20283;-55
2022/06/25 05:47:53;;;;;;;13.50;4.95;;;;;;;;;;4992730;28;20236;-56
2022/06/25 05:50:19;;;;;;;12.43;5.25;;;;;;;;;;4993040;28;20252;-58
2022/06/25 05:52:45;;;;;;;10.27;5.15;;;;;;;;;;4993231;28;20165;-54
2022/06/25 05:55:12;;;;;;;11.60;5.10;;;;;;;;;;4991782;28;20192;-55
2022/06/25 05:57:39;;;;;;;9.50;4.68;;;;;;;;;;4990745;28;20197;-59
2022/06/25 06:00:05;;;;;;;9.48;4.65;;;;;;;;;;4992931;28;20184;-58
2022/06/25 06:02:38;;;;;;;14.15;4.60;;;;;;;;;;4994487;28;20221;-60
2022/06/25 06:05:04;;;;;;;11.27;4.60;;;;;;;;;;4996350;28;20193;-58
2022/06/25 06:07:30;;;;;;;9.88;4.35;;;;;;;;;;4993578;28;20677;-58
2022/06/25 06:09:56;;;;;;;9.68;4.88;;;;;;;;;;5015945;28;20228;-58
2022/06/25 06:12:22;;;;;;;7.53;4.15;;;;;;;;;;5015343;28;20714;-58
2022/06/25 06:14:48;;;;;;;7.28;4.03;;;;;;;;;;5014948;28;20189;-54
2022/06/25 06:17:14;;;;;;;8.35;3.90;;;;;;;;;;5015585;28;20208;-59
2022/06/25 06:19:40;;;;;;;9.43;4.38;;;;;;;;;;4998325;28;20185;-56
2022/06/25 06:22:07;;;;;;;9.43;4.90;;;;;;;;;;5015163;28;20238;-55
2022/06/25 06:24:33;;;;;;;10.95;4.93;;;;;;;;;;5014553;28;20184;-54
2022/06/25 06:27:01;;;;;;;12.18;4.97;;;;;;;;;;5013479;28;20275;-58
2022/06/25 06:29:28;;;;;;;9.77;5.28;;;;;;;;;;5012263;28;20562;-57
2022/06/25 06:31:54;;;;;;;10.45;4.85;;;;;;;;;;5015624;28;20180;-61
2022/06/25 06:34:20;;;;;;;9.68;5.57;;;;;;;;;;5015899;28;20189;-55
2022/06/25 06:36:46;;;;;;;10.77;5.65;;;;;;;;;;5014733;28;20252;-55
2022/06/25 06:39:12;;;;;;;10.40;5.80;;;;;;;;;;5015144;28;20204;-51
2022/06/25 06:41:38;;;;;;;10.77;6.75;;;;;;;;;;5015469;28;20201;-55
2022/06/25 06:44:04;;;;;;;9.98;6.07;;;;;;;;;;5009637;28;20255;-55
2022/06/25 06:46:31;;;;;;;11.18;5.78;;;;;;;;;;5015351;28;20250;-58
2022/06/25 06:48:57;;;;;;;7.72;4.85;;;;;;;;;;5015472;28;20239;-56
2022/06/25 06:51:23;;;;;;;9.43;5.28;;;;;;;;;;5014562;28;20315;-55
2022/06/25 06:53:49;;;;;;;10.77;5.07;;;;;;;;;;5015383;28;20180;-56
2022/06/25 06:56:15;;;;;;;6.60;4.65;;;;;;;;;;5013461;28;20213;-56
2022/06/25 06:58:41;;;;;;;7.82;4.40;;;;;;;;;;5014742;28;20188;-54
2022/06/25 07:01:07;;;;;;;8.75;5.07;;;;;;;;;;5014945;28;20640;-56
2022/06/25 07:03:33;;;;;;;10.38;5.45;;;;;;;;;;5014971;28;20191;-56
2022/06/25 07:06:00;;;;;;;9.65;5.50;;;;;;;;;;5013343;28;20189;-55
2022/06/25 07:08:26;;;;;;;10.52;5.40;;;;;;;;;;4996643;28;20286;-57
2022/06/25 07:10:52;;;;;;;10.60;5.65;;;;;;;;;;5014840;28;20197;-56
2022/06/25 07:13:18;;;;;;;11.95;6.50;;;;;;;;;;5014251;28;20554;-53
2022/06/25 07:15:45;;;;;;;12.60;6.18;;;;;;;;;;5012137;28;20208;-52
2022/06/25 07:18:11;;;;;;;9.95;5.43;;;;;;;;;;5014064;28;20212;-56
2022/06/25 07:20:37;;;;;;;7.43;2.83;;;;;;;;;;4997403;28;20282;-58
2022/06/25 07:23:03;;;;;;;5.10;2.22;;;;;;;;;;4997118;28;20328;-57
2022/06/25 07:25:29;;;;;;;7.03;1.80;;;;;;;;;;5014735;28;20177;-57
2022/06/25 07:27:55;;;;;;;6.15;2.17;;;;;;;;;;5013517;28;20315;-55
2022/06/25 07:30:21;;;;;;;7.10;1.90;;;;;;;;;;5013840;28;20193;-57
2022/06/25 07:32:47;;;;;;;4.70;1.58;;;;;;;;;;5014380;28;20658;-61
2022/06/25 07:35:14;;;;;;;4.63;1.48;;;;;;;;;;5014442;28;20180;-57
2022/06/25 07:37:42;;;;;;;7.18;1.85;;;;;;;;;;5011818;28;20667;-59
2022/06/25 07:40:09;;;;;;;4.95;1.70;;;;;;;;;;5014308;28;20192;-57
2022/06/25 07:42:35;;;;;;;6.38;1.77;;;;;;;;;;5014194;28;20249;-57
2022/06/25 07:45:01;;;;;;;4.32;1.63;;;;;;;;;;5013909;28;20183;-59
2022/06/25 07:47:27;;;;;;;6.95;1.95;;;;;;;;;;5013311;28;20184;-60
2022/06/25 07:52:38;;;;;;;7.82;1.92;;;;;;;;;;5015073;28;20180;-58
2022/06/25 07:55:04;;;;;;;8.63;2.10;;;;;;;;;;5014202;28;20180;-58
2022/06/25 07:57:30;;;;;;;4.50;1.63;;;;;;;;;;5013463;28;20208;-58
2022/06/25 07:59:56;;;;;;;4.07;1.90;;;;;;;;;;5013661;28;20284;-55
2022/06/25 08:02:22;;;;;;;4.47;1.52;;;;;;;;;;5014107;28;20188;-58
2022/06/25 08:04:48;;;;;;;6.20;1.83;;;;;;;;;;5014117;28;20176;-57
2022/06/25 08:07:15;;;;;;;8.15;2.13;;;;;;;;;;4995682;28;20200;-58
2022/06/25 08:09:41;;;;;;;7.57;1.98;;;;;;;;;;4979972;28;20589;-56
2022/06/25 08:12:07;;;;;;;9.73;1.63;;;;;;;;;;5012895;28;20555;-60
2022/06/25 08:14:33;;;;;;;6.57;2.03;;;;;;;;;;4996329;28;20172;-59
2022/06/25 08:16:59;;;;;;;7.13;2.10;;;;;;;;;;4994192;28;20220;-57
2022/06/25 08:19:25;;;;;;;15.65;3.85;;;;;;;;;;4996039;28;20573;-57
2022/06/25 08:21:52;;;;;;;7.65;2.10;;;;;;;;;;5013807;28;20177;-58
2022/06/25 08:24:18;;;;;;;6.63;1.65;;;;;;;;;;4980251;28;20580;-57
2022/06/25 08:26:44;;;;;;;8.45;2.17;;;;;;;;;;5011721;28;20188;-61
2022/06/25 08:29:10;;;;;;;8.57;2.00;;;;;;;;;;4995986;28;20180;-58
2022/06/25 08:31:36;;;;;;;9.27;2.20;;;;;;;;;;5013382;28;20230;-57
2022/06/25 08:34:02;;;;;;;9.52;2.20;;;;;;;;;;5013181;28;20676;-57
2022/06/25 08:36:28;;;;;;;9.38;1.90;;;;;;;;;;5011715;28;20288;-57
2022/06/25 08:38:54;;;;;;;8.20;1.70;;;;;;;;;;4995737;28;20746;-58
2022/06/25 08:41:20;;;;;;;7.60;1.95;;;;;;;;;;5012871;28;20185;-58
2022/06/25 08:43:46;;;;;;;10.38;2.05;;;;;;;;;;5013182;28;20173;-57
2022/06/25 08:46:14;;;;;;;7.93;1.60;;;;;;;;;;4994537;28;20200;-57
2022/06/25 08:48:43;;;;;;;8.23;1.88;;;;;;;;;;4995722;28;20263;-58
2022/06/25 08:51:09;;;;;;;7.93;1.65;;;;;;;;;;5013241;28;20173;-57
2022/06/25 08:53:35;;;;;;;5.78;1.77;;;;;;;;;;4995376;28;20169;-59
2022/06/25 08:56:02;;;;;;;12.45;2.22;;;;;;;;;;5012737;28;20236;-56
2022/06/25 08:58:28;;;;;;;9.48;2.20;;;;;;;;;;5014358;28;20683;-55
2022/06/25 09:00:55;;;;;;;9.50;1.92;;;;;;;;;;5013264;28;20165;-57
2022/06/25 09:03:21;;;;;;;8.45;2.15;;;;;;;;;;4995499;28;20181;-57
2022/06/25 09:05:47;;;;;;;8.50;2.08;;;;;;;;;;5011758;28;20271;-58
2022/06/25 09:08:14;;;;;;;17.42;4.10;;;;;;;;;;5012047;28;20282;-58
2022/06/25 09:10:42;;;;;;;13.23;2.20;;;;;;;;;;5010581;28;20204;-56
2022/06/25 09:13:09;;;;;;;10.82;2.40;;;;;;;;;;5012838;28;20248;-56
2022/06/25 09:15:37;;;;;;;13.98;2.85;;;;;;;;;;5012888;28;20172;-58
2022/06/25 09:18:07;;;;;;;14.23;2.72;;;;;;;;;;5008027;28;20181;-59
2022/06/25 09:20:33;;;;;;;12.32;2.65;;;;;;;;;;4993244;28;20602;-57
2022/06/25 09:23:01;;;;;;;14.52;2.58;;;;;;;;;;4993273;28;20277;-56
2022/06/25 09:25:28;;;;;;;13.25;2.63;;;;;;;;;;4992635;28;20548;-56
2022/06/25 09:27:55;;;;;;;16.98;2.63;;;;;;;;;;5012150;28;20180;-61
2022/06/25 09:30:22;;;;;;;12.18;2.60;;;;;;;;;;4995290;28;20194;-57
2022/06/25 09:32:48;;;;;;;15.02;2.30;;;;;;;;;;4995347;28;20177;-57
2022/06/25 09:35:15;;;;;;;11.00;2.65;;;;;;;;;;5012726;28;20172;-57
2022/06/25 09:37:42;;;;;;;7.78;1.90;;;;;;;;;;5013030;28;20227;-57
2022/06/25 09:40:09;;;;;;;10.73;2.15;;;;;;;;;;5016019;28;20625;-57
2022/06/25 09:42:37;;;;;;;11.13;2.30;;;;;;;;;;5016238;28;20203;-56
2022/06/25 09:45:09;;;;;;;12.50;2.10;;;;;;;;;;5014352;28;20702;-57
2022/06/25 09:47:43;;;;;;;14.00;1.80;;;;;;;;;;4998606;28;20219;-57
2022/06/25 09:50:12;;;;;;;12.25;2.33;;;;;;;;;;5015546;28;20187;-57
2022/06/25 09:52:49;;;;;;;13.48;2.20;;;;;;;;;;5016899;28;20168;-57
2022/06/25 09:55:15;;;;;;;11.80;2.25;;;;;;;;;;5015477;28;20184;-58
2022/06/25 09:57:43;;;;;;;13.80;2.33;;;;;;;;;;5015802;28;20730;-56
2022/06/25 10:00:10;;;;;;;14.25;2.42;;;;;;;;;;5015444;28;20193;-55
2022/06/25 10:02:37;;;;;;;13.98;2.55;;;;;;;;;;5015941;28;20197;-57
2022/06/25 10:05:04;;;;;;;18.25;2.60;;;;;;;;;;5016349;28;20584;-56
2022/06/25 10:10:19;;;;;;;12.57;2.40;;;;;;;;;;5015314;28;20232;-56
2022/06/25 10:12:46;;;;;;;18.13;3.28;;;;;;;;;;5015663;28;20192;-57
2022/06/25 10:15:14;;;;;;;25.45;2.88;;;;;;;;;;5015972;28;20180;-56
2022/06/25 10:17:41;;;;;;;19.63;2.85;;;;;;;;;;5015859;28;20308;-55
2022/06/25 10:20:07;;;;;;;16.45;3.08;;;;;;;;;;4981001;28;20200;-57
2022/06/25 10:22:33;;;;;;;9.77;2.60;;;;;;;;;;4998445;28;20231;-56
2022/06/25 10:25:00;;;;;;;11.85;2.53;;;;;;;;;;5015256;28;20195;-57
2022/06/25 10:27:27;;;;;;;20.15;3.22;;;;;;;;;;5015763;28;20184;-59
2022/06/25 10:29:57;;;;;;;12.40;2.45;;;;;;;;;;5014776;28;20283;-57
2022/06/25 10:32:24;;;;;;;11.20;2.40;;;;;;;;;;5014145;28;20189;-59
2022/06/25 10:34:57;;;;;;;11.40;2.20;;;;;;;;;;5014471;28;20184;-58
2022/06/25 10:37:23;;;;;;;9.60;1.85;;;;;;;;;;5015135;28;20259;-57
2022/06/25 10:39:52;;;;;;;11.07;1.90;;;;;;;;;;5014857;28;20195;-59
2022/06/25 10:45:06;;;;;;;9.63;2.17;;;;;;;;;;5014568;28;20189;-56
2022/06/25 10:47:39;;;;;;;13.13;2.30;;;;;;;;;;5015431;28;20656;-56
2022/06/25 10:50:20;;;;;;;11.88;2.53;;;;;;;;;;5014271;28;20183;-59
2022/06/25 10:53:02;;;;;;;9.60;2.22;;;;;;;;;;5014989;28;20234;-55
2022/06/25 10:55:28;;;;;;;9.98;2.10;;;;;;;;;;5013756;28;20255;-59
2022/06/25 10:58:13;;;;;;;11.25;2.60;;;;;;;;;;5015122;28;20550;-59
2022/06/25 11:00:46;;;;;;;11.70;2.30;;;;;;;;;;5014691;28;20185;-58
2022/06/25 11:03:12;;;;;;;13.20;2.90;;;;;;;;;;5014629;28;20180;-58
2022/06/25 11:05:42;;;;;;;11.90;2.17;;;;;;;;;;4996678;28;20231;-57
2022/06/25 11:08:08;;;;;;;11.65;2.30;;;;;;;;;;5013360;28;20293;-58
2022/06/25 11:10:39;;;;;;;9.75;2.20;;;;;;;;;;4998068;28;20199;-58
2022/06/25 11:13:05;;;;;;;8.75;2.10;;;;;;;;;;5014527;28;20173;-57
2022/06/25 11:15:39;;;;;;;11.25;2.17;;;;;;;;;;5013125;28;20263;-59
2022/06/25 11:18:09;;;;;;;9.93;2.10;;;;;;;;;;5014454;28;20191;-58
2022/06/25 11:20:35;;;;;;;9.48;2.50;;;;;;;;;;5014756;28;20181;-56
2022/06/25 11:23:02;;;;;;;8.15;2.10;;;;;;;;;;5014138;28;20239;-58
2022/06/25 11:28:48;;;;;;;13.98;2.47;;;;;;;;;;5009682;28;20183;-56
2022/06/25 11:31:14;;;;;;;13.93;2.13;;;;;;;;;;4995087;28;20197;-57
2022/06/25 11:33:40;;;;;;;5.72;1.75;;;;;;;;;;5005814;28;20177;-58
2022/06/25 11:36:10;;;;;;;11.13;1.90;;;;;;;;;;5013007;28;20726;-57
2022/06/25 11:38:37;;;;;;;7.57;1.95;;;;;;;;;;5014277;28;20264;-58
2022/06/25 11:41:03;;;;;;;12.82;1.90;;;;;;;;;;5014557;28;20181;-57
2022/06/25 11:43:29;;;;;;;7.32;1.98;;;;;;;;;;5013850;28;20188;-56
2022/06/25 11:45:57;;;;;;;6.97;1.73;;;;;;;;;;5013336;28;20687;-56
2022/06/25 11:48:30;;;;;;;7.57;2.17;;;;;;;;;;5013960;28;20181;-58
2022/06/25 11:50:56;;;;;;;5.53;1.83;;;;;;;;;;5013974;28;20242;-59
2022/06/25 11:53:22;;;;;;;13.10;1.85;;;;;;;;;;5014272;28;20220;-58
2022/06/25 11:55:58;;;;;;;14.40;2.33;;;;;;;;;;5011831;28;20282;-57
2022/06/25 11:58:26;;;;;;;12.98;2.05;;;;;;;;;;5013490;28;20605;-57
2022/06/25 12:00:59;;;;;;;8.68;2.58;;;;;;;;;;5012532;28;20192;-57
2022/06/25 12:03:26;;;;;;;5.75;2.20;;;;;;;;;;5013844;28;20180;-58
2022/06/25 12:05:53;;;;;;;9.43;2.50;;;;;;;;;;5012103;28;20184;-63
2022/06/25 12:08:20;;;;;;;6.93;2.40;;;;;;;;;;5013649;28;20224;-58
2022/06/25 12:10:48;;;;;;;9.38;3.03;;;;;;;;;;5013506;28;20557;-57
2022/06/25 12:13:17;;;;;;;7.82;2.80;;;;;;;;;;5013789;28;20825;-53
2022/06/25 12:15:44;;;;;;;7.95;2.67;;;;;;;;;;5012571;28;20180;-56
2022/06/25 12:18:10;;;;;;;8.02;2.30;;;;;;;;;;5013756;28;20184;-59
2022/06/25 12:20:52;;;;;;;9.00;2.63;;;;;;;;;;5013483;28;20593;-57
2022/06/25 12:23:18;;;;;;;6.35;2.90;;;;;;;;;;4996605;28;20329;-58
2022/06/25 12:25:44;;;;;;;10.45;3.00;;;;;;;;;;5009634;28;20718;-59
2022/06/25 12:28:11;;;;;;;10.82;2.95;;;;;;;;;;5013379;28;20185;-58
2022/06/25 12:30:37;;;;;;;9.60;3.28;;;;;;;;;;5013454;28;20254;-58
2022/06/25 12:33:09;;;;;;;7.38;3.20;;;;;;;;;;5012877;28;20192;-58
2022/06/25 12:35:40;;;;;;;11.20;3.05;;;;;;;;;;5006619;28;20177;-58
2022/06/25 12:38:07;;;;;;;7.38;3.20;;;;;;;;;;4995595;28;20555;-58
2022/06/25 12:40:45;;;;;;;10.23;3.17;;;;;;;;;;4996150;28;20672;-56
2022/06/25 12:43:12;;;;;;;8.90;3.55;;;;;;;;;;4995670;28;20184;-60
2022/06/25 12:45:39;;;;;;;8.50;3.72;;;;;;;;;;5012632;28;20200;-55
2022/06/25 12:48:07;;;;;;;6.30;2.90;;;;;;;;;;5013435;28;20181;-57
2022/06/25 12:50:34;;;;;;;11.63;3.20;;;;;;;;;;4995460;28;20557;-57
2022/06/25 12:53:11;;;;;;;8.65;3.10;;;;;;;;;;5012036;28;20188;-58
2022/06/25 12:55:38;;;;;;;7.97;2.85;;;;;;;;;;5013101;28;20267;-55
2022/06/25 12:58:05;;;;;;;11.90;2.92;;;;;;;;;;5012870;28;20173;-57
2022/06/25 13:00:32;;;;;;;10.80;3.03;;;;;;;;;;5013004;28;20181;-57
2022/06/25 13:02:58;;;;;;;8.73;2.40;;;;;;;;;;5013069;28;20185;-57
2022/06/25 13:05:24;;;;;;;6.70;2.20;;;;;;;;;;4994336;28;20185;-57
2022/06/25 13:07:50;;;;;;;5.72;2.20;;;;;;;;;;4995350;28;20184;-58
2022/06/25 13:10:17;;;;;;;5.45;1.73;;;;;;;;;;5011971;28;20201;-59
2022/06/25 13:12:43;;;;;;;7.75;2.47;;;;;;;;;;5012841;28;20513;-58
2022/06/25 13:15:10;;;;;;;4.90;1.98;;;;;;;;;;5011610;28;20184;-62
2022/06/25 13:17:36;;;;;;;5.40;1.75;;;;;;;;;;5013197;28;20211;-58
2022/06/25 13:20:03;;;;;;;7.88;2.30;;;;;;;;;;5012584;28;20201;-57
2022/06/25 13:22:29;;;;;;;6.25;1.80;;;;;;;;;;5012757;28;20184;-58
2022/06/25 13:24:55;;;;;;;6.75;1.95;;;;;;;;;;5011137;28;20189;-59
2022/06/25 13:27:21;;;;;;;5.07;1.90;;;;;;;;;;5013112;28;20184;-58
2022/06/25 13:29:48;;;;;;;5.75;2.10;;;;;;;;;;5012983;28;20648;-59
2022/06/25 13:32:18;;;;;;;7.43;2.00;;;;;;;;;;5012485;28;20192;-57
2022/06/25 13:34:45;;;;;;;8.90;2.70;;;;;;;;;;5012177;28;20196;-59
2022/06/25 13:37:11;;;;;;;8.05;2.33;;;;;;;;;;5011669;28;20216;-57
2022/06/25 13:39:37;;;;;;;6.35;2.30;;;;;;;;;;5012707;28;20177;-56
2022/06/25 13:42:03;;;;;;;4.57;1.70;;;;;;;;;;4994918;28;20204;-58
2022/06/25 13:44:31;;;;;;;4.78;1.90;;;;;;;;;;5011664;28;20184;-56
2022/06/25 13:46:57;;;;;;;7.28;1.95;;;;;;;;;;5012132;28;20177;-58
2022/06/25 13:49:23;;;;;;;9.65;2.55;;;;;;;;;;5012683;28;20192;-56
2022/06/25 13:51:51;;;;;;;7.47;2.22;;;;;;;;;;5012358;28;20666;-57
2022/06/25 13:54:17;;;;;;;6.82;2.30;;;;;;;;;;4984061;28;20181;-59
2022/06/25 13:56:44;;;;;;;6.05;2.60;;;;;;;;;;5011670;28;20219;-56
2022/06/25 13:59:10;;;;;;;7.00;2.70;;;;;;;;;;5012769;28;20169;-57
2022/06/25 14:01:36;;;;;;;5.05;2.60;;;;;;;;;;5012470;28;20180;-57
2022/06/25 14:04:02;;;;;;;8.27;2.70;;;;;;;;;;5011658;28;20188;-57
2022/06/25 14:06:28;;;;;;;6.28;2.72;;;;;;;;;;5011723;28;20674;-58
2022/06/25 14:08:55;;;;;;;6.72;2.67;;;;;;;;;;5011055;28;20236;-60
2022/06/25 14:11:21;;;;;;;6.20;2.92;;;;;;;;;;5011594;28;20191;-59
2022/06/25 14:13:47;;;;;;;7.05;2.72;;;;;;;;;;5012504;28;20612;-58
2022/06/25 14:16:14;;;;;;;7.22;2.60;;;;;;;;;;5011282;28;20256;-58
2022/06/25 14:18:40;;;;;;;6.15;2.60;;;;;;;;;;5012372;28;20267;-61
2022/06/25 14:21:06;;;;;;;5.10;2.35;;;;;;;;;;4994213;28;20531;-58
2022/06/25 14:23:33;;;;;;;6.20;2.60;;;;;;;;;;4994049;28;20735;-58
2022/06/25 14:25:59;;;;;;;7.45;2.90;;;;;;;;;;5015648;28;20267;-59
2022/06/25 14:28:25;;;;;;;7.32;2.72;;;;;;;;;;5009792;28;20196;-57
2022/06/25 14:30:52;;;;;;;7.40;2.50;;;;;;;;;;4978764;28;20668;-57
2022/06/25 14:33:18;;;;;;;7.50;2.28;;;;;;;;;;4998405;28;20238;-57
2022/06/25 14:44:00;;;;;;;7.50;1.88;;;;;;;;;;4984967;28;20196;-54
2022/06/25 14:46:26;;;;;;;5.47;1.77;;;;;;;;;;4997873;28;20282;-57
2022/06/25 14:48:52;;;;;;;8.55;2.05;;;;;;;;;;4997017;28;20276;-57
2022/06/25 14:51:19;;;;;;;5.15;2.08;;;;;;;;;;4997416;28;20187;-55
2022/06/25 14:53:45;;;;;;;7.32;2.00;;;;;;;;;;5008898;28;20268;-57
2022/06/25 14:56:11;;;;;;;6.75;1.67;;;;;;;;;;5007946;28;20215;-55
2022/06/25 14:58:38;;;;;;;6.55;1.90;;;;;;;;;;5015046;28;20188;-58
2022/06/25 15:01:04;;;;;;;6.28;1.80;;;;;;;;;;4996902;28;20199;-58
2022/06/25 15:03:30;;;;;;;5.80;1.77;;;;;;;;;;5015250;28;20207;-57